This is the latest recevied weather packets stored in our database for station/object LA9UTA-13. If no packets are shown the sender has not sent any weather packets the latest 10 day(s).
| Time | Temp. | Humidity | Pressure | Rain* | Wind** | Luminosity | Snow |
|---|---|---|---|---|---|---|---|
| 1777645082 | 20.56° C | 41% | 1019.6 hPa | 0 mm | - | 406 W/m² | - |
| 1777643882 | 21.11° C | 40% | 1020.6 hPa | 0 mm | - | 434 W/m² | - |
| 1777641483 | 20.56° C | 38% | 1020.6 hPa | 0 mm | - | 50 W/m² | - |
| 1777640283 | 20° C | 38% | 1020.6 hPa | 0 mm | - | 50 W/m² | - |
| 1777639083 | 19.44° C | 41% | 1021.7 hPa | 0 mm | - | 50 W/m² | - |
| 1777637882 | 19.44° C | 45% | 1021.7 hPa | 0 mm | - | 529 W/m² | - |
| 1777636682 | 19.44° C | 39% | 1021.7 hPa | 0 mm | - | 539 W/m² | - |
| 1777635482 | 19.44° C | 35% | 1021.7 hPa | 0 mm | - | 544 W/m² | - |
| 1777635160 | 17.78° C | 40% | 1021.9 hPa | 0 mm | - | 547 W/m² | - |
| 1777634282 | 17.78° C | 40% | 1021.9 hPa | 0 mm | - | 547 W/m² | - |
| 1777633082 | 17.22° C | 46% | 1021.9 hPa | 0 mm | - | 540 W/m² | - |
| 1777630682 | 16.11° C | 51% | 1023.1 hPa | 0 mm | - | 527 W/m² | - |
| 1777629482 | 15° C | 50% | 1023.1 hPa | 0 mm | - | 512 W/m² | - |
| 1777628282 | 14.44° C | 52% | 1023.2 hPa | 0 mm | - | 491 W/m² | - |
| 1777627082 | 13.33° C | 61% | 1023.3 hPa | 0 mm | - | 465 W/m² | - |
| 1777625882 | 13.33° C | 62% | 1023.3 hPa | 0 mm | - | 442 W/m² | - |
| 1777625337 | 12.22° C | 66% | 1023.4 hPa | 0 mm | - | 425 W/m² | - |
| 1777624682 | 12.22° C | 66% | 1023.4 hPa | 0 mm | - | 425 W/m² | - |
| 1777623483 | 13.33° C | 64% | 1023.3 hPa | 0 mm | - | 392 W/m² | - |
| 1777622284 | 12.22° C | 68% | 1023.4 hPa | 0 mm | - | 361 W/m² | - |
| 1777621082 | 14.44° C | 62% | 1023.2 hPa | 0 mm | - | 328 W/m² | - |
| 1777619882 | 13.33° C | 66% | 1023.3 hPa | 0 mm | - | 293 W/m² | - |
| 1777618682 | 10° C | 74% | 1024.6 hPa | 0 mm | - | 46 W/m² | - |
| 1777617482 | 8.33° C | 81% | 1024.8 hPa | 0 mm | - | 50 W/m² | - |
| 1777616282 | 7.22° C | 82% | 1024.9 hPa | 0 mm | - | 40 W/m² | - |
* Rain latest hour (hover to see other rain measurements)
** Current wind speed in m/s (hover to see current wind gust speed)